Yeppoon, Queensland

11:50 AM AEST on October 22, 2014 (GMT +1000)
Lammermoor | Change Station
CLOSE
Current Station
Personal Weather Station
Location: Taroomball, QUEENSLAND
Elevation: 66 ft
Nearby Weather Stations

Elev 66 ft 23.16 °S, 150.76 °E | Updated 2 seconds ago

Scattered Clouds
Scattered Clouds
77.2 °F
Feels Like 79 °F
N
5.8
Wind Variable Wind from SSE
Gusts 9.8 mph

Today
High -- | Low -- °F
--% Chance of Precip.
Yesterday
High -- | Low -- °F
Precip. -- in
5:19 AM 6:04 PM
Waning Crescent, 3% visible
Pressure 30.15 in
Visibility 6.2 miles
Clouds Scattered Clouds 4500 ft
Heat Index 79 °F
Dew Point 62 °F
Humidity 59%
Rainfall 0.00 in
Snow Depth Not available.
UV 8.0 out of 12
Pollen Not available.
Air Quality Not available.
Flu Activity Not available.
METAR YBRK 220130Z 08008KT 9999 SCT045 25/13 Q1021

More Conditions Fewer Conditions

Pressure 30.15 in
Visibility 6.2 miles
Clouds Scattered Clouds 4500 ft
Heat Index 79 °F
Dew Point 62 °F
Humidity 59%
Rainfall 0.00 in
Snow Depth Not available.
UV 8.0 out of 12
Pollen Not available.
Air Quality Not available.
Flu Activity Not available.
METAR YBRK 220130Z 08008KT 9999 SCT045 25/13 Q1021

More Conditions Fewer Conditions

10-Day Weather Forecast

Almanac

Astronomy

Oct. 22, 2014 Rise Set
Actual Time 5:19 AM AEST 6:04 PM AEST
Civil Twilight 4:55 AM AEST 6:27 PM AEST
Nautical Twilight 4:28 AM AEST 6:54 PM AEST
Astronomical Twilight 4:01 AM AEST 7:22 PM AEST
Moon 4:03 AM AEST 4:37 PM AEST
Length of Visible Light 13h 31m
Length of Day
12h 45m
Tomorrow will be 1m 16s longer.
Waning Crescent, 3% of the Moon is Illuminated
Oct 21
Waning Crescent
Oct 23
New
Oct 30
First Quarter
Nov 6
Full
Nov 14
Last Quarter

Yesterday's Extremes

Country Highs Country Lows

Community

WunderPhotos

Upload Photos

1,763,843 photos uploaded!

Nearby

Snow Depth

Not available.

Earthquake Activity

City Distance Mag. Time & Date
No recent earthquake activity has been reported nearby.
Minimum magnitude displayed is 2.5.

Coastal Water Temperatures

Place Temperature
No Stations Reporting

Nearby Weather Stations